createdAt,value
2018-03-22T00:00:34.424Z,77.46
2018-03-22T00:03:00.512Z,77.67
2018-03-22T00:05:26.640Z,77.66
2018-03-22T00:07:52.844Z,77.78
2018-03-22T00:10:18.920Z,77.87
2018-03-22T00:12:45.027Z,77.91
2018-03-22T00:15:11.123Z,77.98
2018-03-22T00:17:37.135Z,78.05
2018-03-22T00:20:03.250Z,78.02
2018-03-22T00:22:37.304Z,78.07
2018-03-22T00:25:03.324Z,78.23
2018-03-22T00:27:29.467Z,78.08
2018-03-22T00:29:55.569Z,78.13
2018-03-22T00:32:21.627Z,78.39
2018-03-22T00:34:47.691Z,78.36
2018-03-22T00:37:13.743Z,78.22
2018-03-22T00:39:39.831Z,78.21
2018-03-22T00:42:05.907Z,78.34
2018-03-22T00:44:31.940Z,78.36
2018-03-22T00:46:58.020Z,78.35
2018-03-22T00:49:24.211Z,78.41
2018-03-22T00:51:50.267Z,78.51
2018-03-22T00:54:16.328Z,78.64
2018-03-22T00:56:42.426Z,78.65
2018-03-22T00:59:08.458Z,78.78
2018-03-22T01:01:34.836Z,78.82
2018-03-22T01:04:00.881Z,78.82
2018-03-22T01:06:26.955Z,78.87
2018-03-22T01:08:53.015Z,78.75
2018-03-22T01:11:19.034Z,78.63
2018-03-22T01:13:45.233Z,78.60
2018-03-22T01:16:11.266Z,78.39
2018-03-22T01:18:37.289Z,78.34
2018-03-22T01:21:03.574Z,78.39
2018-03-22T01:23:29.659Z,78.26
2018-03-22T01:25:55.887Z,78.25
2018-03-22T01:28:21.978Z,78.28
2018-03-22T01:30:48.005Z,78.35
2018-03-22T01:33:14.077Z,78.14
2018-03-22T01:35:40.143Z,78.04
2018-03-22T01:38:06.204Z,77.99
2018-03-22T01:40:32.297Z,78.12
2018-03-22T01:42:58.347Z,78.24
2018-03-22T01:48:17.600Z,78.48
2018-03-22T01:50:43.688Z,78.34
2018-03-22T01:53:12.612Z,78.35
2018-03-22T01:55:38.664Z,78.36
2018-03-22T01:58:04.702Z,78.42
2018-03-22T02:00:30.780Z,78.37
2018-03-22T02:02:56.819Z,78.45
2018-03-22T02:05:22.905Z,78.57
2018-03-22T02:07:49.014Z,78.64
2018-03-22T02:10:15.062Z,78.53
2018-03-22T02:12:41.117Z,78.48
2018-03-22T02:15:07.180Z,78.60
2018-03-22T02:17:33.211Z,78.43
2018-03-22T02:19:59.464Z,78.48
2018-03-22T02:22:25.511Z,78.36
2018-03-22T02:24:51.596Z,78.30
2018-03-22T02:27:17.646Z,78.14
2018-03-22T02:29:43.788Z,78.02
2018-03-22T02:32:09.844Z,77.92
2018-03-22T02:34:35.873Z,77.84
2018-03-22T02:37:02.054Z,77.64
2018-03-22T02:39:28.122Z,77.53
2018-03-22T02:41:54.427Z,77.26
2018-03-22T02:44:20.474Z,77.18
2018-03-22T02:46:46.744Z,77.18
2018-03-22T02:49:12.793Z,77.04
2018-03-22T02:51:38.858Z,76.94
2018-03-22T02:54:04.952Z,76.83
2018-03-22T02:56:31.200Z,76.87
2018-03-22T02:58:57.278Z,76.90
2018-03-22T03:01:23.501Z,76.72
2018-03-22T03:03:49.598Z,76.65
2018-03-22T03:06:15.665Z,76.62
2018-03-22T03:08:41.711Z,76.50
2018-03-22T03:11:07.859Z,76.51
2018-03-22T03:13:33.947Z,76.91
2018-03-22T03:16:00.022Z,77.38
2018-03-22T03:18:26.068Z,77.59
2018-03-22T03:20:52.228Z,77.81
2018-03-22T03:23:18.267Z,78.09
2018-03-22T03:25:44.324Z,78.05
2018-03-22T03:28:10.395Z,77.93
2018-03-22T03:30:36.446Z,77.70
2018-03-22T03:33:02.505Z,77.66
2018-03-22T03:35:28.572Z,77.78
2018-03-22T03:37:54.767Z,78.39
2018-03-22T03:40:20.811Z,78.54
2018-03-22T03:42:46.857Z,78.89
2018-03-22T03:45:13.040Z,79.15
2018-03-22T03:47:39.113Z,79.09
2018-03-22T03:50:05.151Z,79.13
2018-03-22T03:52:31.271Z,79.06
2018-03-22T03:54:57.289Z,79.03
2018-03-22T03:57:23.532Z,79.69
2018-03-22T03:59:49.552Z,79.66
2018-03-22T04:02:15.602Z,80.22
2018-03-22T04:04:41.680Z,80.79
2018-03-22T04:07:07.738Z,81.24
2018-03-22T04:09:33.808Z,82.16
2018-03-22T04:12:00.175Z,82.73
2018-03-22T04:14:26.219Z,83.21
2018-03-22T04:16:52.552Z,83.71
2018-03-22T04:19:18.593Z,84.34
2018-03-22T04:21:44.924Z,85.03
2018-03-22T04:24:10.973Z,85.56
2018-03-22T04:26:37.734Z,86.13
2018-03-22T04:29:03.828Z,86.95
2018-03-22T04:31:30.161Z,87.65
2018-03-22T04:33:56.198Z,88.34
2018-03-22T04:36:22.414Z,88.85
2018-03-22T04:38:48.465Z,89.41
2018-03-22T04:41:14.522Z,89.92
2018-03-22T04:43:40.573Z,90.43
2018-03-22T04:46:06.632Z,90.82
2018-03-22T04:48:32.965Z,91.31
2018-03-22T04:50:59.039Z,91.61
2018-03-22T04:53:25.091Z,91.78
2018-03-22T04:55:51.129Z,91.94
2018-03-22T04:58:17.193Z,92.08
2018-03-22T05:00:43.452Z,92.22
2018-03-22T05:03:09.547Z,92.38
2018-03-22T05:05:35.619Z,92.42
2018-03-22T05:08:01.723Z,92.43
2018-03-22T05:10:27.813Z,92.41
2018-03-22T05:12:53.886Z,92.55
2018-03-22T05:15:19.970Z,92.53
2018-03-22T05:17:46.051Z,92.52
2018-03-22T05:20:12.119Z,92.65
2018-03-22T05:22:38.238Z,92.64
2018-03-22T05:25:04.303Z,92.66
2018-03-22T05:27:30.439Z,92.79
2018-03-22T05:29:56.524Z,92.85
2018-03-22T05:32:22.594Z,92.94
2018-03-22T05:34:48.687Z,92.97
2018-03-22T05:37:14.744Z,93.22
2018-03-22T05:39:40.980Z,93.18
2018-03-22T05:42:07.006Z,93.49
2018-03-22T05:44:33.067Z,93.95
2018-03-22T05:46:59.178Z,94.16
2018-03-22T05:49:25.243Z,94.40
2018-03-22T05:51:51.578Z,94.69
2018-03-22T05:54:17.707Z,94.94
2018-03-22T05:56:43.795Z,95.18
2018-03-22T05:59:09.864Z,95.19
2018-03-22T06:01:35.906Z,95.31
2018-03-22T06:04:01.987Z,95.41
2018-03-22T06:06:28.002Z,95.54
2018-03-22T06:08:54.050Z,95.73
2018-03-22T06:11:20.276Z,95.80
2018-03-22T06:13:46.352Z,95.95
2018-03-22T06:16:12.578Z,96.04
2018-03-22T06:18:38.595Z,96.13
2018-03-22T06:21:04.631Z,96.31
2018-03-22T06:23:30.719Z,96.43
2018-03-22T06:25:56.756Z,96.54
2018-03-22T06:28:23.008Z,96.69
2018-03-22T06:30:49.032Z,96.75
2018-03-22T06:33:15.136Z,96.81
2018-03-22T06:35:41.176Z,96.89
2018-03-22T06:38:07.377Z,96.95
2018-03-22T06:40:33.462Z,96.96
2018-03-22T06:42:59.509Z,97.08
2018-03-22T06:45:25.787Z,97.30
2018-03-22T06:47:51.873Z,97.23
2018-03-22T06:50:18.036Z,97.49
2018-03-22T06:52:44.129Z,97.61
2018-03-22T06:55:10.254Z,97.71
2018-03-22T06:57:36.291Z,97.74
2018-03-22T07:00:02.358Z,97.81
2018-03-22T07:02:28.417Z,97.88
2018-03-22T07:04:54.470Z,97.95
2018-03-22T07:07:20.525Z,98.02
2018-03-22T07:09:46.667Z,98.16
2018-03-22T07:12:12.763Z,98.19
2018-03-22T07:14:38.916Z,98.24
2018-03-22T07:17:05.000Z,98.46
2018-03-22T07:19:31.031Z,98.47
2018-03-22T07:21:57.242Z,98.53
2018-03-22T07:24:23.308Z,98.62
2018-03-22T07:26:49.448Z,98.58
2018-03-22T07:29:15.516Z,98.60
2018-03-22T07:31:41.671Z,98.70
2018-03-22T07:34:07.784Z,98.70
2018-03-22T07:36:33.863Z,98.77
2018-03-22T07:38:59.970Z,98.84
2018-03-22T07:41:26.256Z,98.82
2018-03-22T07:43:52.326Z,98.79
2018-03-22T07:46:18.383Z,98.66
2018-03-22T07:48:44.439Z,98.75
2018-03-22T07:51:10.518Z,98.71
2018-03-22T07:53:36.808Z,98.79
2018-03-22T07:56:02.894Z,98.63
2018-03-22T07:58:29.079Z,98.66
2018-03-22T08:00:55.160Z,98.65
2018-03-22T08:03:21.234Z,98.68
2018-03-22T08:05:47.943Z,98.64
2018-03-22T08:08:13.983Z,98.72
2018-03-22T08:10:40.088Z,98.77
2018-03-22T08:13:06.172Z,98.79
2018-03-22T08:15:32.508Z,98.85
2018-03-22T08:17:58.560Z,98.93
2018-03-22T08:20:24.591Z,98.83
2018-03-22T08:22:50.652Z,98.88
2018-03-22T08:25:17.000Z,98.98
2018-03-22T08:27:43.077Z,98.94
2018-03-22T08:30:09.174Z,99.13
2018-03-22T08:32:35.246Z,98.98
2018-03-22T08:35:01.321Z,99.16
2018-03-22T08:37:27.384Z,99.24
2018-03-22T08:39:53.419Z,99.42
2018-03-22T08:42:19.656Z,99.49
2018-03-22T08:44:45.748Z,99.44
2018-03-22T08:47:11.801Z,99.48
2018-03-22T08:49:37.859Z,99.46
2018-03-22T08:52:03.897Z,99.52
2018-03-22T08:54:29.971Z,99.45
2018-03-22T08:56:56.073Z,99.53
2018-03-22T08:59:22.508Z,99.58
2018-03-22T09:01:48.567Z,99.59
2018-03-22T09:04:14.634Z,99.62
2018-03-22T09:06:40.889Z,99.67
2018-03-22T09:09:06.955Z,99.74
2018-03-22T09:11:33.096Z,99.70
2018-03-22T09:13:59.155Z,99.72
2018-03-22T09:16:25.369Z,99.72
2018-03-22T09:18:51.492Z,99.74
2018-03-22T09:21:17.538Z,99.87
2018-03-22T09:23:43.578Z,99.89
2018-03-22T09:26:09.640Z,99.93
2018-03-22T09:28:35.713Z,99.98
2018-03-22T09:31:01.761Z,99.93
2018-03-22T09:33:27.834Z,99.93
2018-03-22T09:35:53.927Z,99.88
2018-03-22T09:38:20.168Z,99.96
2018-03-22T09:40:46.217Z,99.89
2018-03-22T09:43:12.593Z,99.85
2018-03-22T09:45:38.638Z,99.94
2018-03-22T09:48:04.794Z,100.00
2018-03-22T09:50:30.883Z,99.92
2018-03-22T09:52:56.968Z,99.95
2018-03-22T09:55:22.994Z,99.90
2018-03-22T09:57:49.056Z,99.95
2018-03-22T10:00:15.113Z,99.77
2018-03-22T10:02:41.198Z,99.74
2018-03-22T10:05:07.243Z,99.67
2018-03-22T10:07:33.372Z,99.67
2018-03-22T10:09:59.412Z,99.38
2018-03-22T10:12:25.674Z,99.32
2018-03-22T10:14:51.765Z,99.15
2018-03-22T10:17:18.057Z,99.18
2018-03-22T10:19:44.092Z,98.92
2018-03-22T10:22:10.106Z,98.78
2018-03-22T10:24:36.130Z,98.77
2018-03-22T10:27:02.184Z,98.77
2018-03-22T10:29:28.387Z,98.62
2018-03-22T10:31:54.480Z,98.48
2018-03-22T10:34:20.526Z,98.40
2018-03-22T10:36:46.612Z,98.24
2018-03-22T10:39:12.873Z,98.25
2018-03-22T10:41:38.922Z,98.04
2018-03-22T10:44:04.981Z,97.89
2018-03-22T10:46:31.062Z,97.85
2018-03-22T10:48:57.292Z,97.76
2018-03-22T10:51:23.321Z,97.52
2018-03-22T10:53:49.412Z,97.44
2018-03-22T10:56:15.541Z,97.26
2018-03-22T10:58:41.608Z,97.13
2018-03-22T11:01:13.722Z,97.02
2018-03-22T11:03:45.832Z,96.86
2018-03-22T11:06:11.917Z,96.73
2018-03-22T11:08:37.955Z,96.64
2018-03-22T11:11:04.016Z,96.49
2018-03-22T11:13:30.059Z,96.38
2018-03-22T11:15:56.164Z,96.35
2018-03-22T11:18:22.220Z,96.39
2018-03-22T11:20:48.236Z,96.39
2018-03-22T11:23:14.286Z,96.35
2018-03-22T11:25:40.312Z,96.32
2018-03-22T11:28:06.348Z,96.23
2018-03-22T11:30:32.556Z,96.22
2018-03-22T11:32:58.631Z,96.20
2018-03-22T11:35:24.872Z,96.22
2018-03-22T11:37:51.158Z,96.24
2018-03-22T11:40:17.315Z,96.20
2018-03-22T11:42:43.577Z,96.15
2018-03-22T11:45:09.696Z,96.14
2018-03-22T11:47:35.830Z,96.08
2018-03-22T11:50:01.859Z,96.15
2018-03-22T11:52:28.089Z,96.18
2018-03-22T11:54:54.144Z,96.23
2018-03-22T11:57:20.309Z,96.10
2018-03-22T11:59:46.375Z,96.04
2018-03-22T12:02:12.473Z,95.88
2018-03-22T12:04:38.659Z,95.84
2018-03-22T12:07:04.806Z,95.75
2018-03-22T12:09:30.922Z,95.71
2018-03-22T12:11:57.139Z,95.64
2018-03-22T12:14:23.246Z,95.49
2018-03-22T12:16:49.258Z,95.49
2018-03-22T12:19:15.290Z,95.51
2018-03-22T12:21:41.372Z,95.45
2018-03-22T12:24:07.408Z,95.49
2018-03-22T12:26:33.449Z,95.48
2018-03-22T12:28:59.459Z,95.60
2018-03-22T12:31:40.438Z,95.59
2018-03-22T12:34:06.484Z,95.79
2018-03-22T12:36:32.562Z,96.07
2018-03-22T12:38:58.669Z,96.22
2018-03-22T12:41:24.711Z,96.35
2018-03-22T12:43:50.754Z,96.44
2018-03-22T12:46:16.804Z,96.52
2018-03-22T12:48:42.859Z,96.78
2018-03-22T12:51:08.910Z,97.03
2018-03-22T12:53:35.086Z,97.27
2018-03-22T12:56:01.153Z,97.52
2018-03-22T12:58:27.186Z,97.75
2018-03-22T13:00:53.254Z,97.95
2018-03-22T13:03:19.382Z,98.13
2018-03-22T13:06:00.330Z,98.33
2018-03-22T13:08:26.374Z,98.45
2018-03-22T13:10:52.529Z,98.58
2018-03-22T13:13:18.624Z,98.75
2018-03-22T13:15:44.653Z,98.81
2018-03-22T13:18:10.696Z,98.98
2018-03-22T13:20:36.815Z,98.98
2018-03-22T13:23:02.900Z,99.02
2018-03-22T13:25:29.025Z,99.05
2018-03-22T13:27:55.058Z,99.00
2018-03-22T13:30:21.263Z,99.13
2018-03-22T13:32:47.277Z,99.27
2018-03-22T13:35:13.547Z,99.25
2018-03-22T13:37:39.608Z,99.32
2018-03-22T13:40:05.654Z,99.42
2018-03-22T13:42:31.868Z,99.41
2018-03-22T13:44:58.554Z,99.53
2018-03-22T13:47:24.577Z,99.58
2018-03-22T13:49:50.606Z,99.64
2018-03-22T13:52:16.725Z,99.76
2018-03-22T13:54:42.751Z,99.80
2018-03-22T13:57:08.819Z,99.81
2018-03-22T13:59:34.868Z,99.83
2018-03-22T14:02:00.953Z,99.99
2018-03-22T14:04:27.043Z,100.00
2018-03-22T14:06:53.085Z,100.00
2018-03-22T14:09:19.177Z,100.00
2018-03-22T14:11:45.264Z,100.00
2018-03-22T14:14:11.462Z,100.00
2018-03-22T14:16:37.536Z,100.00
2018-03-22T14:19:03.588Z,100.00
2018-03-22T14:21:29.672Z,100.00
2018-03-22T14:23:55.753Z,100.00
2018-03-22T14:26:22.007Z,100.00
2018-03-22T14:28:48.059Z,100.00
2018-03-22T14:31:14.314Z,100.00
2018-03-22T14:33:40.372Z,100.00
2018-03-22T14:36:06.460Z,100.00
2018-03-22T14:38:32.744Z,100.00
2018-03-22T14:40:58.818Z,100.00
2018-03-22T14:43:24.950Z,100.00
2018-03-22T14:45:51.001Z,100.00
2018-03-22T14:48:17.112Z,100.00
2018-03-22T14:50:43.143Z,100.00
2018-03-22T14:53:09.380Z,100.00
2018-03-22T14:55:35.464Z,100.00
2018-03-22T14:58:01.524Z,100.00
2018-03-22T15:00:27.592Z,100.00
2018-03-22T15:02:53.791Z,100.00
2018-03-22T15:05:19.806Z,100.00
2018-03-22T15:07:45.889Z,100.00
2018-03-22T15:10:11.966Z,100.00
2018-03-22T15:12:38.000Z,100.00
2018-03-22T15:15:04.284Z,100.00
2018-03-22T15:17:30.348Z,100.00
2018-03-22T15:19:56.388Z,100.00
2018-03-22T15:22:22.484Z,100.00
2018-03-22T15:24:48.547Z,100.00
2018-03-22T15:27:14.749Z,100.00
2018-03-22T15:29:40.802Z,100.00
2018-03-22T15:32:06.839Z,100.00
2018-03-22T15:34:33.065Z,100.00
2018-03-22T15:36:59.110Z,100.00
2018-03-22T15:39:25.279Z,100.00
2018-03-22T15:41:51.339Z,100.00
2018-03-22T15:44:17.396Z,100.00
2018-03-22T15:46:43.438Z,100.00
2018-03-22T15:49:09.532Z,100.00
2018-03-22T15:51:35.620Z,100.00
2018-03-22T15:54:01.662Z,100.00
2018-03-22T15:56:27.798Z,100.00
2018-03-22T15:58:53.820Z,100.00
2018-03-22T16:01:19.978Z,100.00
2018-03-22T16:03:46.087Z,100.00
2018-03-22T16:06:12.136Z,100.00
2018-03-22T16:08:38.254Z,100.00
2018-03-22T16:11:04.294Z,100.00
2018-03-22T16:13:31.529Z,100.00
2018-03-22T16:15:57.658Z,100.00
2018-03-22T16:18:23.756Z,100.00
2018-03-22T16:20:49.832Z,100.00
2018-03-22T16:23:15.898Z,100.00
2018-03-22T16:25:41.984Z,100.00
2018-03-22T16:28:08.052Z,100.00
2018-03-22T16:30:34.252Z,100.00
2018-03-22T16:33:00.325Z,100.00
2018-03-22T16:35:26.438Z,100.00
2018-03-22T16:37:52.499Z,100.00
2018-03-22T16:40:18.531Z,100.00
2018-03-22T16:42:44.633Z,100.00
2018-03-22T16:45:10.741Z,100.00
2018-03-22T16:47:37.693Z,100.00
2018-03-22T16:50:03.738Z,100.00
2018-03-22T16:52:29.831Z,100.00
2018-03-22T16:54:55.860Z,100.00
2018-03-22T16:57:22.120Z,100.00
2018-03-22T16:59:48.225Z,100.00
2018-03-22T17:02:14.472Z,100.00
2018-03-22T17:04:40.699Z,100.00
2018-03-22T17:07:06.746Z,100.00
2018-03-22T17:09:32.879Z,100.00
2018-03-22T17:11:58.963Z,100.00
2018-03-22T17:14:25.186Z,100.00
2018-03-22T17:16:51.260Z,100.00
2018-03-22T17:19:17.307Z,100.00
2018-03-22T17:21:43.816Z,100.00
2018-03-22T17:24:09.879Z,100.00
2018-03-22T17:26:35.915Z,100.00
2018-03-22T17:29:02.206Z,100.00
2018-03-22T17:31:28.277Z,100.00
2018-03-22T17:33:54.310Z,100.00
2018-03-22T17:36:20.488Z,100.00
2018-03-22T17:38:46.621Z,100.00
2018-03-22T17:41:12.678Z,100.00
2018-03-22T17:43:38.890Z,100.00
2018-03-22T17:46:04.949Z,100.00
2018-03-22T17:48:31.055Z,100.00
2018-03-22T17:50:57.302Z,100.00
2018-03-22T17:53:23.359Z,100.00
2018-03-22T17:55:49.721Z,100.00
2018-03-22T17:58:15.770Z,100.00
2018-03-22T18:00:41.968Z,100.00
2018-03-22T18:03:08.106Z,100.00
2018-03-22T18:05:34.213Z,100.00
2018-03-22T18:08:00.282Z,100.00
2018-03-22T18:10:27.207Z,100.00
2018-03-22T18:12:53.382Z,100.00
2018-03-22T18:15:19.444Z,100.00
2018-03-22T18:17:45.516Z,100.00
2018-03-22T18:20:11.577Z,100.00
2018-03-22T18:22:37.661Z,100.00
2018-03-22T18:25:03.706Z,100.00
2018-03-22T18:27:30.035Z,100.00
2018-03-22T18:29:56.126Z,100.00
2018-03-22T18:32:22.184Z,100.00
2018-03-22T18:34:48.327Z,100.00
2018-03-22T18:37:14.388Z,100.00
2018-03-22T18:39:40.737Z,100.00
2018-03-22T18:42:06.858Z,100.00
2018-03-22T18:44:32.998Z,100.00
2018-03-22T18:46:59.200Z,100.00
2018-03-22T18:49:25.266Z,100.00
2018-03-22T18:51:51.555Z,100.00
2018-03-22T18:54:17.659Z,100.00
2018-03-22T18:56:43.764Z,100.00
2018-03-22T19:02:03.216Z,100.00
2018-03-22T19:04:29.293Z,99.71
2018-03-22T19:06:55.469Z,98.98
2018-03-22T19:09:21.582Z,98.20
2018-03-22T19:11:47.806Z,97.30
2018-03-22T19:14:14.033Z,96.58
2018-03-22T19:16:40.087Z,96.10
2018-03-22T19:19:06.250Z,95.59
2018-03-22T19:21:32.341Z,95.26
2018-03-22T19:23:58.383Z,94.93
2018-03-22T19:26:25.309Z,95.02
2018-03-22T19:28:51.424Z,94.82
2018-03-22T19:31:17.651Z,94.90
2018-03-22T19:33:43.821Z,94.89
2018-03-22T19:36:10.692Z,94.88
2018-03-22T19:38:36.771Z,94.48
2018-03-22T19:41:02.917Z,93.77
2018-03-22T19:43:29.307Z,93.59
2018-03-22T19:45:55.445Z,93.26
2018-03-22T19:48:21.561Z,92.99
2018-03-22T19:50:47.893Z,92.82
2018-03-22T19:53:13.965Z,93.01
2018-03-22T19:55:40.095Z,93.03
2018-03-22T19:58:06.159Z,93.05
2018-03-22T20:00:32.798Z,93.05
2018-03-22T20:02:58.902Z,92.99
2018-03-22T20:05:26.397Z,93.07
2018-03-22T20:07:52.514Z,93.06
2018-03-22T20:10:18.666Z,93.14
2018-03-22T20:12:44.858Z,93.17
2018-03-22T20:15:11.157Z,93.37
2018-03-22T20:17:37.365Z,93.42
2018-03-22T20:20:03.580Z,93.52
2018-03-22T20:22:30.785Z,93.56
2018-03-22T20:24:56.806Z,93.45
2018-03-22T20:27:23.967Z,93.39
2018-03-22T20:29:50.067Z,93.37
2018-03-22T20:32:16.162Z,93.61
2018-03-22T20:34:42.216Z,93.68
2018-03-22T20:37:08.234Z,93.64
2018-03-22T20:39:34.659Z,93.70
2018-03-22T20:42:00.734Z,93.67
2018-03-22T20:44:26.942Z,93.88
2018-03-22T20:46:53.255Z,93.90
2018-03-22T20:49:20.423Z,93.95
2018-03-22T20:51:46.517Z,94.03
2018-03-22T20:54:12.800Z,94.16
2018-03-22T20:56:38.960Z,94.24
2018-03-22T20:59:05.110Z,94.34
2018-03-22T21:01:31.356Z,94.42
2018-03-22T21:03:57.473Z,94.55
2018-03-22T21:06:23.563Z,94.73
2018-03-22T21:08:49.626Z,94.83
2018-03-22T21:11:15.728Z,94.86
2018-03-22T21:13:42.001Z,94.89
2018-03-22T21:16:08.170Z,94.93
2018-03-22T21:18:34.253Z,94.99
2018-03-22T21:21:00.522Z,95.14
2018-03-22T21:23:26.597Z,94.98
2018-03-22T21:25:52.652Z,95.01
2018-03-22T21:28:18.710Z,94.86
2018-03-22T21:30:44.811Z,94.91
2018-03-22T21:33:10.969Z,94.84
2018-03-22T21:35:37.027Z,94.91
2018-03-22T21:38:03.107Z,94.89
2018-03-22T21:40:29.239Z,95.05
2018-03-22T21:42:55.325Z,95.01
2018-03-22T21:45:21.425Z,95.09
2018-03-22T21:47:47.461Z,94.99
2018-03-22T21:50:14.506Z,94.90
2018-03-22T21:52:44.461Z,94.93
2018-03-22T21:55:10.680Z,94.91
2018-03-22T21:57:36.759Z,94.90
2018-03-22T22:00:03.027Z,94.87
2018-03-22T22:02:29.124Z,94.85
2018-03-22T22:04:55.466Z,94.90
2018-03-22T22:07:21.463Z,94.94
2018-03-22T22:09:47.597Z,94.96
2018-03-22T22:12:13.678Z,94.91
2018-03-22T22:14:39.822Z,94.95
2018-03-22T22:17:05.912Z,94.96
2018-03-22T22:19:32.006Z,94.96
2018-03-22T22:21:58.097Z,95.02
2018-03-22T22:24:24.129Z,95.09
2018-03-22T22:26:50.283Z,95.12
2018-03-22T22:29:16.381Z,95.16
2018-03-22T22:31:42.483Z,95.18
2018-03-22T22:34:08.674Z,95.16
2018-03-22T22:36:34.752Z,95.33
2018-03-22T22:39:00.880Z,95.45
2018-03-22T22:41:26.997Z,95.59
2018-03-22T22:43:53.068Z,95.62
2018-03-22T22:46:19.283Z,95.68
2018-03-22T22:48:45.336Z,95.71
2018-03-22T22:51:11.414Z,95.82
2018-03-22T22:53:37.525Z,95.88
2018-03-22T22:56:03.564Z,95.88
2018-03-22T22:58:29.649Z,95.90
2018-03-22T23:00:55.702Z,96.01
2018-03-22T23:03:21.810Z,96.03
2018-03-22T23:05:47.882Z,96.14
2018-03-22T23:08:13.906Z,96.24
2018-03-22T23:10:39.925Z,96.38
2018-03-22T23:13:05.981Z,96.49
2018-03-22T23:15:32.284Z,96.57
2018-03-22T23:17:58.326Z,96.57
2018-03-22T23:20:24.385Z,96.61
2018-03-22T23:22:50.492Z,96.67
2018-03-22T23:25:16.560Z,96.70
2018-03-22T23:27:42.572Z,96.63
2018-03-22T23:30:08.700Z,96.63
2018-03-22T23:32:34.740Z,96.69
2018-03-22T23:35:00.896Z,96.70
2018-03-22T23:37:26.949Z,96.67
2018-03-22T23:39:53.148Z,96.56
2018-03-22T23:42:19.197Z,96.43
2018-03-22T23:44:45.240Z,96.49
2018-03-22T23:47:11.512Z,96.37
2018-03-22T23:49:37.527Z,96.18
2018-03-22T23:52:03.712Z,96.01
2018-03-22T23:54:29.756Z,95.96
2018-03-22T23:56:55.834Z,95.96
2018-03-22T23:59:21.872Z,96.00
